Time;durP1;ratioP1;P1;durP2;ratioP2;P2;SDS_P1;SDS_P2;PMS_P1;PMS_P2;Temp;Humidity;BMP_temperature;BMP_pressure;BME280_temperature;BME280_humidity;BME280_pressure;Samples;Min_cycle;Max_cycle;Signal;HPM_P1;HPM_P2
2022/07/17 00:03:20;;;;;;;3.08;0.90;;;20.50;52.00;;;19.05;40.94;100699.41;10418308;27;96629;-85
2022/07/17 00:08:23;;;;;;;1.35;0.80;;;20.20;52.60;;;18.90;41.57;100705.88;10381543;28;96523;-84
2022/07/17 00:13:27;;;;;;;1.50;0.90;;;20.10;53.20;;;18.75;41.82;100704.44;10429775;27;96673;-84
2022/07/17 00:18:30;;;;;;;2.33;0.80;;;19.90;53.60;;;18.63;42.30;100707.75;10434288;27;98557;-85
2022/07/17 00:23:33;;;;;;;1.38;0.90;;;19.80;54.10;;;18.53;42.46;100717.25;10396236;28;96926;-84
2022/07/17 00:28:36;;;;;;;2.10;1.00;;;19.70;54.40;;;18.43;42.61;100710.44;10432282;27;97106;-84
2022/07/17 00:33:39;;;;;;;2.40;1.00;;;19.60;54.60;;;18.34;42.96;100714.34;10421384;27;96811;-85
2022/07/17 00:38:42;;;;;;;3.75;1.65;;;19.50;54.90;;;18.27;43.27;100720.78;10426985;27;97068;-85
2022/07/17 00:43:45;;;;;;;8.82;3.67;;;19.40;55.10;;;18.18;43.54;100720.16;10418896;28;96555;-86
2022/07/17 00:48:48;;;;;;;9.80;5.15;;;19.30;55.20;;;18.11;43.65;100730.06;10405965;27;98537;-86
2022/07/17 00:53:52;;;;;;;4.35;2.35;;;19.20;55.40;;;18.04;44.09;100739.97;10442510;27;98322;-85
2022/07/17 00:58:55;;;;;;;3.53;1.60;;;19.20;55.70;;;17.91;44.37;100735.41;10422085;27;96827;-85
2022/07/17 01:03:59;;;;;;;2.53;1.48;;;19.00;56.10;;;17.80;44.74;100736.81;10420912;27;96735;-87
2022/07/17 01:09:02;;;;;;;3.00;1.10;;;18.90;56.50;;;17.74;44.71;100729.53;10458568;27;97159;-86
2022/07/17 01:14:06;;;;;;;7.25;4.05;;;18.90;56.80;;;17.69;45.17;100740.03;10443656;27;96658;-86
2022/07/17 01:19:11;;;;;;;4.57;2.58;;;18.80;56.90;;;17.59;45.40;100747.66;10442904;27;96543;-86
2022/07/17 01:24:15;;;;;;;2.30;1.25;;;18.80;57.10;;;17.53;45.50;100751.16;10435374;27;99211;-85
2022/07/17 01:29:18;;;;;;;2.72;1.30;;;18.60;57.20;;;17.44;45.75;100742.41;10426105;27;96629;-83
2022/07/17 01:34:21;;;;;;;4.25;1.05;;;18.60;57.50;;;17.32;46.11;100750.22;10440981;27;96730;-83
2022/07/17 01:44:45;;;;;;;2.28;1.20;;;18.30;58.00;;;17.02;46.75;100757.66;10458059;27;98682;-83
2022/07/17 01:49:52;;;;;;;1.23;0.80;;;18.20;58.30;;;16.91;47.24;100758.22;10402916;28;98019;-84
2022/07/17 01:54:55;;;;;;;1.77;0.75;;;18.00;58.70;;;16.76;47.57;100755.63;10424234;27;98782;-83
2022/07/17 02:00:01;;;;;;;0.93;0.60;;;17.90;59.10;;;16.65;48.14;100764.19;10399187;28;98755;-83
2022/07/17 02:05:04;;;;;;;2.17;0.98;;;17.80;59.40;;;16.59;48.35;100763.09;10440268;27;97521;-83
2022/07/17 02:10:09;;;;;;;1.92;0.95;;;17.80;59.60;;;16.58;48.38;100763.31;10440781;27;96738;-84
2022/07/17 02:15:14;;;;;;;2.30;0.70;;;17.80;59.50;;;16.56;48.73;100765.34;10440610;27;97815;-83
2022/07/17 02:20:17;;;;;;;1.85;0.75;;;17.70;59.50;;;16.51;48.78;100762.41;10399948;28;96577;-84
2022/07/17 02:25:21;;;;;;;2.28;0.85;;;17.70;59.80;;;16.45;48.91;100779.28;10417761;27;97255;-83
2022/07/17 02:30:24;;;;;;;2.35;0.80;;;17.70;60.00;;;16.39;48.99;100788.09;10420659;27;98240;-83
2022/07/17 02:35:27;;;;;;;2.60;0.90;;;17.60;60.20;;;16.31;49.19;100780.97;10383643;28;96963;-84
2022/07/17 02:40:30;;;;;;;1.52;0.70;;;17.50;60.30;;;16.21;49.47;100781.31;10439485;27;97373;-85
2022/07/17 02:45:33;;;;;;;1.60;0.82;;;17.40;60.50;;;16.16;49.36;100778.38;10400262;27;96804;-85
2022/07/17 02:50:36;;;;;;;0.95;0.70;;;17.40;60.40;;;16.07;49.56;100795.59;10423170;27;96792;-85
2022/07/17 02:55:39;;;;;;;1.45;0.70;;;17.30;61.30;;;15.88;50.21;100801.56;10437626;27;96743;-85
2022/07/17 03:00:42;;;;;;;2.00;0.77;;;17.10;61.20;;;15.81;50.59;100812.19;10436537;27;97312;-85
2022/07/17 03:05:47;;;;;;;1.42;0.80;;;17.00;61.40;;;15.68;51.01;100812.84;10436104;27;97067;-85
2022/07/17 03:10:50;;;;;;;1.40;0.80;;;16.90;61.70;;;15.56;51.08;100814.31;10423125;27;96585;-87
2022/07/17 03:15:52;;;;;;;1.63;0.82;;;16.80;62.00;;;15.47;51.28;100823.44;10455647;27;96846;-86
2022/07/17 03:20:55;;;;;;;3.05;0.80;;;16.70;62.00;;;15.39;51.43;100826.22;10439816;27;96513;-84
2022/07/17 03:25:58;;;;;;;2.17;0.77;;;16.60;62.30;;;15.32;51.38;100831.47;10449819;27;96799;-84
2022/07/17 03:31:01;;;;;;;2.03;1.00;;;16.50;62.30;;;15.33;51.54;100835.00;10452279;27;96587;-83
2022/07/17 03:36:06;;;;;;;2.58;0.68;;;16.50;62.70;;;15.37;51.31;100842.47;10456306;27;96488;-84
2022/07/17 03:41:09;;;;;;;2.33;0.77;;;16.50;62.50;;;15.49;51.27;100850.88;10434359;27;96555;-84
2022/07/17 03:46:11;;;;;;;2.78;0.77;;;16.60;62.20;;;15.64;50.96;100841.03;10435224;27;96648;-85
2022/07/17 03:51:14;;;;;;;1.25;0.85;;;16.80;61.80;;;15.74;50.79;100854.97;10438686;27;96525;-85
2022/07/17 03:56:17;;;;;;;1.08;0.60;;;16.90;61.70;;;15.83;50.54;100860.22;10435485;27;98181;-84
2022/07/17 04:01:20;;;;;;;1.58;0.90;;;17.00;61.60;;;15.94;50.59;100870.47;10418051;27;96775;-84
2022/07/17 04:06:23;;;;;;;2.10;0.70;;;17.10;61.40;;;16.04;50.59;100866.50;10438865;27;96617;-83
2022/07/17 04:11:26;;;;;;;4.82;0.70;;;17.20;61.30;;;16.19;50.28;100871.84;10432856;27;97347;-84
2022/07/17 04:16:30;;;;;;;4.32;0.70;;;17.30;61.10;;;16.32;50.02;100882.72;10457119;27;96698;-83
2022/07/17 04:21:33;;;;;;;4.47;0.85;;;17.50;61.00;;;16.42;49.49;100895.00;10442967;27;96569;-91
2022/07/17 04:26:36;;;;;;;1.30;0.70;;;17.50;60.90;;;16.45;49.52;100891.94;10426612;27;96909;-87
2022/07/17 04:31:38;;;;;;;2.67;0.60;;;17.60;60.70;;;16.47;49.43;100890.72;10439367;27;97256;-86
2022/07/17 04:36:41;;;;;;;2.35;0.70;;;17.60;60.80;;;16.53;49.38;100891.81;10433918;27;96666;-86
2022/07/17 04:41:44;;;;;;;1.75;0.68;;;17.60;60.80;;;16.61;49.41;100902.41;10409126;27;96664;-86
2022/07/17 04:46:47;;;;;;;1.50;0.50;;;17.70;60.80;;;16.78;48.96;100897.69;10442226;27;96735;-85
2022/07/17 04:52:04;;;;;;;1.90;0.60;;;17.80;60.60;;;16.94;48.93;100904.66;10430591;27;96555;-86
2022/07/17 04:57:07;;;;;;;1.33;0.60;;;18.00;60.50;;;17.16;48.44;100902.81;10442277;27;96697;-86
2022/07/17 05:02:10;;;;;;;1.27;0.60;;;18.20;60.00;;;17.35;47.76;100915.56;10412542;27;96608;-86
2022/07/17 05:07:14;;;;;;;1.00;0.45;;;18.40;59.50;;;17.55;47.08;100911.16;10393204;27;96699;-86
2022/07/17 05:12:17;;;;;;;1.63;0.60;;;18.60;58.90;;;17.70;46.58;100920.97;10422198;27;97662;-87
2022/07/17 05:17:20;;;;;;;1.52;0.55;;;18.80;58.50;;;17.86;46.65;100920.69;10426853;27;98042;-87
2022/07/17 05:22:23;;;;;;;0.90;0.57;;;18.90;58.40;;;18.05;46.49;100925.34;10456265;27;97326;-85
2022/07/17 05:27:27;;;;;;;0.75;0.50;;;19.10;58.20;;;18.24;45.68;100923.78;10440008;27;96687;-86
2022/07/17 05:32:30;;;;;;;1.05;0.50;;;19.30;57.60;;;18.40;45.05;100926.09;10414175;27;96814;-85
2022/07/17 05:37:34;;;;;;;2.08;0.50;;;19.50;57.10;;;18.62;44.68;100931.38;10443060;27;96713;-85
2022/07/17 05:42:37;;;;;;;2.38;0.50;;;19.70;56.70;;;18.76;43.59;100933.06;10420958;27;97013;-85
2022/07/17 05:47:40;;;;;;;1.67;0.60;;;19.80;55.80;;;18.92;43.33;100935.41;10424765;27;97332;-84
2022/07/17 05:52:43;;;;;;;0.80;0.43;;;20.00;55.30;;;19.11;42.44;100935.63;10431755;27;96899;-86
2022/07/17 05:57:45;;;;;;;1.27;0.52;;;20.10;54.80;;;19.25;41.26;100935.44;10435785;27;96631;-85
2022/07/17 06:02:48;;;;;;;1.60;0.60;;;20.30;53.70;;;19.35;39.80;100934.19;10408402;27;98831;-85
2022/07/17 06:07:53;;;;;;;1.45;0.50;;;20.40;52.40;;;19.43;39.09;100939.34;10406162;27;96676;-85
2022/07/17 06:12:56;;;;;;;1.77;0.50;;;20.50;51.50;;;19.52;38.70;100949.72;10445880;27;96690;-83
2022/07/17 06:18:03;;;;;;;1.27;0.55;;;20.50;51.30;;;19.68;38.82;100953.91;10393181;27;96544;-85
2022/07/17 06:23:06;;;;;;;1.88;0.52;;;20.70;51.30;;;19.82;38.76;100949.31;10439833;27;96554;-83
2022/07/17 06:28:09;;;;;;;2.40;0.70;;;20.90;51.10;;;19.98;38.59;100954.28;10410756;27;96651;-83
2022/07/17 06:33:12;;;;;;;1.77;0.50;;;21.00;51.00;;;20.12;37.86;100962.31;10450744;27;97664;-84
2022/07/17 06:38:15;;;;;;;1.17;0.40;;;21.10;50.60;;;20.33;38.08;100956.63;10455967;27;96560;-85
2022/07/17 06:43:18;;;;;;;4.70;0.60;;;21.40;50.90;;;20.44;37.06;100958.66;10438035;27;98577;-83
2022/07/17 06:48:22;;;;;;;1.75;0.50;;;21.50;49.90;;;20.61;37.59;100958.22;10424657;27;98522;-84
2022/07/17 06:53:25;;;;;;;0.65;0.40;;;21.70;50.00;;;20.70;36.43;100965.03;10413098;27;97164;-85
2022/07/17 06:58:28;;;;;;;2.35;0.80;;;21.80;49.00;;;20.74;36.19;100953.56;10438487;27;96848;-84
2022/07/17 07:03:31;;;;;;;5.15;0.73;;;21.80;48.90;;;20.91;36.13;100951.19;10399782;27;96861;-85
2022/07/17 07:08:35;;;;;;;2.15;0.50;;;21.90;48.90;;;20.97;36.11;100965.69;10404456;27;96946;-85
2022/07/17 07:13:38;;;;;;;1.27;0.40;;;22.00;48.50;;;21.06;36.18;100959.81;10433638;27;97490;-84
2022/07/17 07:18:41;;;;;;;1.10;0.50;;;22.00;48.90;;;21.30;35.68;100960.09;10422298;27;96556;-84
2022/07/17 07:23:44;;;;;;;0.98;0.40;;;22.30;48.60;;;21.45;35.01;100955.19;10387202;28;96736;-84
2022/07/17 07:28:47;;;;;;;2.58;0.43;;;22.50;48.00;;;21.58;34.76;100965.88;10404914;28;97592;-83
2022/07/17 07:33:50;;;;;;;1.45;0.50;;;22.60;47.80;;;21.57;34.12;100963.41;10427096;27;96782;-84
2022/07/17 07:38:53;;;;;;;1.48;0.50;;;22.60;47.10;;;21.50;34.47;100959.94;10422498;27;96465;-84
2022/07/17 07:43:57;;;;;;;1.80;0.40;;;22.50;47.30;;;21.51;33.14;100953.47;10459010;27;96752;-84
2022/07/17 07:49:00;;;;;;;1.55;0.68;;;22.50;46.30;;;21.52;33.67;100963.22;10446615;27;96535;-83
2022/07/17 07:54:03;;;;;;;2.22;0.57;;;22.50;46.30;;;21.52;33.42;100947.84;10429474;27;96663;-85
2022/07/17 07:59:06;;;;;;;1.52;0.43;;;22.50;46.10;;;21.61;32.85;100965.44;10428912;27;96859;-83
2022/07/17 08:04:09;;;;;;;1.40;0.50;;;22.60;45.70;;;21.69;32.12;100958.09;10462654;27;96579;-84
2022/07/17 08:09:12;;;;;;;1.55;0.47;;;22.60;45.30;;;21.79;31.91;100959.25;10445800;27;96885;-85
2022/07/17 08:14:15;;;;;;;2.20;0.68;;;22.70;45.00;;;21.86;31.62;100964.59;10463014;27;96550;-83
2022/07/17 08:19:19;;;;;;;0.82;0.38;;;22.70;44.40;;;22.02;31.34;100958.59;10462816;27;96802;-82
2022/07/17 08:24:22;;;;;;;0.55;0.30;;;22.90;44.20;;;22.14;31.30;100959.53;10445527;27;97767;-83
2022/07/17 08:29:25;;;;;;;1.65;0.60;;;23.10;44.20;;;22.45;31.71;100957.69;10425689;27;98468;-83
2022/07/17 08:34:48;;;;;;;4.38;0.47;;;23.40;44.50;;;22.74;31.38;100968.78;10459371;27;96726;-82
2022/07/17 08:39:52;;;;;;;1.27;0.55;;;23.70;44.30;;;22.89;31.15;100961.09;10441708;27;96626;-83
2022/07/17 08:44:55;;;;;;;1.27;0.50;;;23.90;44.10;;;22.90;31.10;100970.88;10425928;27;96727;-83
2022/07/17 08:49:59;;;;;;;2.28;0.50;;;23.90;44.30;;;22.94;31.52;100969.38;10444762;27;96563;-83
2022/07/17 08:55:03;;;;;;;4.47;0.70;;;23.90;44.50;;;23.05;30.87;100962.34;10441983;27;100516;-83
2022/07/17 09:00:10;;;;;;;0.75;0.40;;;24.00;43.80;;;23.23;31.40;100970.38;10427755;27;96578;-84
2022/07/17 09:05:12;;;;;;;1.38;0.50;;;24.20;44.20;;;23.41;30.85;100947.78;10427418;27;96582;-84
2022/07/17 09:10:16;;;;;;;1.88;0.60;;;24.40;43.90;;;23.58;30.47;100954.16;10443346;27;96763;-82
2022/07/17 09:15:20;;;;;;;0.82;0.40;;;24.60;43.60;;;23.64;29.12;100947.81;10442467;27;96629;-83
2022/07/17 09:20:24;;;;;;;2.25;0.82;;;24.70;42.40;;;23.64;29.63;100944.28;10442784;27;96531;-85
2022/07/17 09:25:43;;;;;;;2.92;0.73;;;24.60;42.70;;;23.69;29.77;100945.22;10438313;27;96853;-84
2022/07/17 09:30:55;;;;;;;1.25;0.45;;;24.70;42.80;;;23.86;30.23;100939.88;10420949;27;96726;-85
2022/07/17 09:36:13;;;;;;;0.68;0.40;;;24.80;43.30;;;24.10;29.61;100940.69;10444074;27;96531;-84
2022/07/17 09:41:20;;;;;;;1.38;0.50;;;25.10;43.20;;;24.38;29.32;100931.78;10458977;27;98126;-85
2022/07/17 09:46:24;;;;;;;1.67;0.38;;;25.40;42.60;;;24.64;28.54;100927.66;10452426;27;96578;-83
2022/07/17 09:51:33;;;;;;;1.65;0.60;;;25.70;42.40;;;24.74;28.28;100936.00;10431571;27;96598;-84
2022/07/17 09:56:39;;;;;;;2.30;0.57;;;25.80;41.60;;;24.77;28.16;100926.53;10403715;27;96820;-85
2022/07/17 10:01:48;;;;;;;1.33;0.40;;;25.80;41.70;;;24.93;28.40;100933.91;10442761;27;97694;-83
2022/07/17 10:06:52;;;;;;;1.03;0.50;;;26.00;41.90;;;25.10;27.87;100914.94;10436452;27;96895;-84
2022/07/17 10:11:56;;;;;;;1.33;0.43;;;26.20;41.50;;;25.26;27.22;100916.00;10441795;27;98327;-84
2022/07/17 10:17:14;;;;;;;1.95;0.40;;;26.40;41.10;;;25.32;26.73;100909.56;10437989;27;98203;-84
2022/07/17 10:22:17;;;;;;;1.88;0.70;;;26.40;39.50;;;25.27;26.33;100904.06;10439027;27;98336;-83
2022/07/17 10:27:31;;;;;;;2.55;0.63;;;26.30;39.70;;;25.32;26.74;100898.69;10422664;27;96815;-83
2022/07/17 10:32:35;;;;;;;1.40;0.57;;;26.30;40.10;;;25.47;26.47;100895.38;10458379;27;96595;-84
2022/07/17 10:37:40;;;;;;;1.63;0.50;;;26.40;40.10;;;25.67;26.29;100895.69;10438662;27;96661;-84
2022/07/17 10:42:59;;;;;;;2.83;0.50;;;26.60;40.00;;;25.85;25.34;100895.41;10453598;27;96772;-84
2022/07/17 10:48:20;;;;;;;1.87;0.57;;;26.80;39.20;;;26.05;24.90;100886.66;10435682;27;97682;-83
2022/07/17 10:53:33;;;;;;;6.78;3.08;;;27.10;39.00;;;26.23;24.95;100893.69;10423182;27;96654;-85
2022/07/17 10:58:43;;;;;;;5.03;0.90;;;27.30;38.60;;;26.39;25.36;100895.50;10439377;27;96530;-83
2022/07/17 11:03:53;;;;;;;1.25;0.70;;;27.50;38.90;;;26.55;24.13;100885.63;10458484;27;96977;-83
2022/07/17 11:09:00;;;;;;;1.70;0.55;;;27.60;38.00;;;26.72;23.70;100879.25;10432562;27;97610;-84
2022/07/17 11:14:20;;;;;;;0.82;0.50;;;27.80;37.70;;;26.97;23.59;100867.72;10455961;27;96560;-83
2022/07/17 11:19:41;;;;;;;1.60;0.40;;;28.00;37.60;;;27.18;23.03;100869.56;10439294;27;96446;-83
2022/07/17 11:24:48;;;;;;;0.98;0.47;;;28.30;37.20;;;27.27;22.33;100873.44;10434340;27;96650;-86
2022/07/17 11:29:53;;;;;;;0.90;0.50;;;28.40;36.60;;;27.28;22.48;100855.97;10422679;27;96842;-83
2022/07/17 11:34:57;;;;;;;1.58;0.50;;;28.40;36.30;;;27.32;22.38;100848.91;10457645;27;96416;-84
2022/07/17 11:40:20;;;;;;;0.75;0.40;;;28.50;36.10;;;27.42;21.64;100842.72;10442126;27;97601;-83
2022/07/17 11:45:24;;;;;;;0.60;0.40;;;28.70;35.20;;;27.82;21.36;100839.38;10422744;27;96514;-83
2022/07/17 11:50:27;;;;;;;1.10;0.50;;;29.00;35.00;;;28.01;20.68;100845.22;10437351;27;97299;-83
2022/07/17 11:55:40;;;;;;;1.80;0.47;;;29.10;35.10;;;28.18;20.47;100831.28;10455436;27;96714;-84
2022/07/17 12:00:43;;;;;;;1.58;0.73;;;29.10;34.70;;;28.26;21.31;100823.41;10439517;27;96530;-84
2022/07/17 12:05:46;;;;;;;2.08;0.70;;;29.20;35.20;;;28.46;20.34;100825.38;10405029;27;96578;-83
2022/07/17 12:11:01;;;;;;;1.10;0.45;;;29.40;34.40;;;28.51;20.84;100825.38;10380286;27;96666;-83
2022/07/17 12:16:31;;;;;;;1.73;0.60;;;29.40;34.80;;;28.57;19.93;100817.19;10382111;28;96596;-84
2022/07/17 12:21:58;;;;;;;1.80;0.60;;;29.60;33.80;;;28.52;20.38;100820.75;10410663;27;97216;-84
2022/07/17 12:27:04;;;;;;;1.73;0.40;;;29.60;34.10;;;28.64;20.35;100812.25;10441150;27;96532;-85
2022/07/17 12:32:10;;;;;;;2.38;0.65;;;29.70;34.60;;;28.82;19.76;100805.44;10401098;28;96570;-85
2022/07/17 12:37:16;;;;;;;1.27;0.60;;;29.80;34.20;;;29.14;19.74;100799.66;10376288;28;97393;-84
2022/07/17 12:42:19;;;;;;;1.10;0.47;;;30.10;34.20;;;29.44;19.68;100793.28;10436331;27;96583;-84
2022/07/17 12:47:22;;;;;;;0.90;0.50;;;30.40;33.80;;;29.59;18.89;100796.81;10402102;28;96750;-84
2022/07/17 12:52:25;;;;;;;2.10;1.48;;;30.60;33.00;;;29.51;19.00;100789.16;10395898;27;96775;-84
2022/07/17 12:57:28;;;;;;;1.33;0.60;;;30.40;33.10;;;29.63;18.70;100779.81;10377440;28;96558;-84
2022/07/17 13:02:31;;;;;;;2.90;0.50;;;30.50;33.10;;;29.76;18.23;100781.97;10378854;28;96422;-83
2022/07/17 13:07:54;;;;;;;1.23;0.50;;;30.60;32.70;;;29.60;17.69;100786.69;10415982;28;96564;-85
2022/07/17 13:12:57;;;;;;;1.02;0.50;;;30.80;32.10;;;29.36;17.42;100777.44;10416295;28;97860;-82
2022/07/17 13:18:02;;;;;;;2.35;0.47;;;30.80;31.70;;;29.46;18.27;100775.50;10415744;27;96921;-84
2022/07/17 13:23:05;;;;;;;1.05;0.50;;;30.70;32.10;;;29.68;18.12;100771.59;10401010;28;96501;-84
2022/07/17 13:28:08;;;;;;;1.33;0.60;;;30.80;32.30;;;29.59;17.29;100772.19;10417889;27;98423;-89
2022/07/17 13:33:11;;;;;;;1.40;0.57;;;30.90;31.80;;;29.59;17.96;100769.44;10427589;27;97557;-86
2022/07/17 13:38:14;;;;;;;0.90;0.50;;;30.90;31.90;;;29.75;17.43;100766.66;10440975;27;96763;-87
2022/07/17 13:43:17;;;;;;;2.88;0.60;;;31.10;31.70;;;29.66;17.52;100771.88;10406155;27;96669;-86
2022/07/17 13:48:20;;;;;;;2.00;0.70;;;31.10;31.30;;;29.89;17.70;100756.69;10404779;27;97249;-88
2022/07/17 13:53:24;;;;;;;1.30;0.50;;;31.10;31.60;;;30.08;17.49;100752.19;10443070;27;96996;-87
2022/07/17 13:58:27;;;;;;;1.05;0.30;;;31.30;31.40;;;30.36;17.64;100750.63;10431390;27;98028;-87
2022/07/17 14:03:30;;;;;;;2.03;0.52;;;31.60;31.80;;;30.61;17.06;100757.00;10409646;27;98337;-87
2022/07/17 14:08:34;;;;;;;1.98;0.70;;;31.80;31.40;;;30.81;17.12;100745.06;10433542;27;98330;-87
2022/07/17 14:13:38;;;;;;;0.95;0.43;;;31.90;31.50;;;30.80;16.09;100743.41;10435757;27;98275;-87
2022/07/17 14:18:57;;;;;;;0.90;0.50;;;31.90;30.70;;;30.90;16.43;100741.41;10442918;27;98690;-85
2022/07/17 14:24:03;;;;;;;1.00;0.68;;;32.00;30.80;;;30.78;16.13;100740.97;10454984;27;96757;-86
2022/07/17 14:29:07;;;;;;;1.42;0.40;;;32.00;30.40;;;30.79;16.44;100739.06;10438114;27;97584;-86
2022/07/17 14:34:12;;;;;;;1.10;0.50;;;32.00;30.80;;;30.81;15.73;100734.06;10436570;27;97626;-85
2022/07/17 14:39:16;;;;;;;3.28;0.60;;;32.00;30.30;;;30.73;16.50;100731.97;10412589;27;96720;-88
2022/07/17 14:44:19;;;;;;;1.00;0.40;;;31.70;30.80;;;30.80;16.58;100732.44;10415862;27;96741;-84
2022/07/17 14:49:22;;;;;;;0.95;0.50;;;31.60;31.00;;;30.80;16.30;100736.00;10432002;27;97072;-83
2022/07/17 14:54:27;;;;;;;2.50;0.60;;;31.60;30.80;;;30.55;15.79;100739.78;10449168;27;96837;-88
2022/07/17 14:59:30;;;;;;;1.25;0.60;;;31.40;30.20;;;30.36;16.48;100739.69;10437346;27;96677;-85
2022/07/17 15:04:36;;;;;;;1.67;0.63;;;31.10;30.80;;;30.41;16.06;100736.09;10446302;27;98833;-84
2022/07/17 15:09:38;;;;;;;1.02;0.50;;;31.20;30.60;;;30.01;16.65;100746.19;10424385;27;98511;-84
2022/07/17 15:14:41;;;;;;;1.13;0.32;;;30.90;30.80;;;29.93;17.30;100745.97;10434898;27;96587;-85
2022/07/17 15:19:50;;;;;;;2.75;0.70;;;30.70;31.20;;;29.56;17.73;100737.13;10454613;27;96678;-88
2022/07/17 15:24:53;;;;;;;0.80;0.40;;;30.50;31.50;;;29.65;17.14;100734.63;10430426;27;96614;-92
2022/07/17 15:29:56;;;;;;;0.73;0.50;;;30.50;31.20;;;29.60;17.32;100734.66;10408659;27;98544;-87
2022/07/17 15:34:59;;;;;;;5.53;0.63;;;30.50;31.20;;;29.35;17.06;100727.34;10455056;27;96618;-88
2022/07/17 15:40:04;;;;;;;1.08;0.40;;;30.30;31.10;;;29.18;18.04;100729.59;10434656;27;98158;-87
2022/07/17 15:45:08;;;;;;;1.00;0.50;;;30.00;31.80;;;29.12;17.56;100719.78;10407136;27;97703;-87
2022/07/17 15:50:12;;;;;;;1.77;0.50;;;29.90;31.30;;;29.26;17.45;100724.34;10406270;27;97258;-86
2022/07/17 15:55:15;;;;;;;2.63;0.50;;;30.00;31.30;;;29.40;17.22;100710.91;10432606;27;96633;-87
2022/07/17 16:00:18;;;;;;;0.77;0.50;;;30.30;31.10;;;29.32;16.77;100719.69;10414582;27;98462;-86
2022/07/17 16:05:21;;;;;;;0.75;0.50;;;30.20;31.00;;;29.29;16.88;100710.13;10418291;27;96903;-87
2022/07/17 16:10:25;;;;;;;2.42;0.70;;;30.10;31.20;;;29.39;16.96;100713.91;10408347;27;98708;-89
2022/07/17 16:15:28;;;;;;;1.52;0.47;;;30.10;30.90;;;29.37;16.68;100718.84;10431675;27;97578;-87
2022/07/17 16:20:31;;;;;;;0.73;0.50;;;30.10;30.70;;;29.48;17.02;100724.00;10418024;27;96658;-87
2022/07/17 16:25:34;;;;;;;1.60;0.70;;;30.20;31.20;;;29.68;16.97;100711.34;10442164;27;96753;-88
2022/07/17 16:30:38;;;;;;;2.15;0.43;;;30.40;31.20;;;29.70;17.04;100714.63;10455465;27;96637;-87
2022/07/17 16:35:42;;;;;;;1.27;0.50;;;30.70;31.10;;;29.74;16.85;100726.63;10441566;27;97191;-88
2022/07/17 16:40:45;;;;;;;2.38;0.57;;;30.80;30.70;;;29.51;16.77;100722.63;10455391;27;98184;-87
2022/07/17 16:45:48;;;;;;;2.83;0.60;;;30.60;30.70;;;29.15;17.38;100724.66;10438079;27;97225;-88
2022/07/17 16:50:52;;;;;;;2.45;0.98;;;30.20;30.90;;;28.82;17.50;100724.19;10408765;27;97095;-87
2022/07/17 16:55:55;;;;;;;5.57;0.70;;;29.80;31.10;;;28.73;17.90;100721.22;10438633;27;96646;-88
2022/07/17 17:00:58;;;;;;;0.88;0.47;;;29.60;31.70;;;28.67;17.79;100721.47;10427287;27;96617;-87
2022/07/17 17:06:01;;;;;;;2.55;0.50;;;29.60;31.50;;;28.54;17.87;100720.94;10426168;27;97228;-89
2022/07/17 17:11:04;;;;;;;0.70;0.30;;;29.50;31.60;;;28.40;17.64;100721.78;10431780;27;96556;-88
2022/07/17 17:16:08;;;;;;;2.40;0.50;;;29.40;31.60;;;28.07;18.09;100714.88;10461388;27;96647;-89
2022/07/17 17:21:12;;;;;;;2.95;0.43;;;29.10;31.50;;;27.69;18.39;100725.19;10442545;27;96681;-87
2022/07/17 17:26:16;;;;;;;2.42;0.60;;;28.80;31.80;;;27.30;18.58;100736.50;10442181;27;96766;-87
2022/07/17 17:31:19;;;;;;;2.75;0.70;;;28.30;32.00;;;27.05;19.22;100730.84;10442851;27;96649;-86
2022/07/17 17:36:22;;;;;;;2.97;0.80;;;28.00;32.60;;;26.72;20.01;100732.03;10433840;27;98556;-87
2022/07/17 17:41:24;;;;;;;4.50;0.50;;;27.70;32.90;;;26.31;20.20;100728.94;10433084;27;96887;-87
2022/07/17 17:46:27;;;;;;;0.57;0.40;;;27.40;33.50;;;25.99;20.89;100737.09;10412800;27;96801;-85
2022/07/17 17:51:31;;;;;;;0.88;0.40;;;27.00;33.90;;;25.66;21.10;100730.69;10429691;27;98692;-86
2022/07/17 17:56:34;;;;;;;1.65;0.70;;;26.70;34.00;;;25.41;21.75;100739.38;10426251;27;96633;-85
2022/07/17 18:01:39;;;;;;;2.20;0.60;;;26.40;34.40;;;25.20;21.93;100741.03;10425646;27;96607;-84
2022/07/17 18:06:42;;;;;;;1.08;0.52;;;26.20;34.60;;;25.00;21.86;100741.53;10429169;27;96935;-85
2022/07/17 18:11:45;;;;;;;1.35;0.40;;;26.10;34.70;;;24.81;22.01;100751.84;10435550;27;96573;-83
2022/07/17 18:16:48;;;;;;;5.88;0.55;;;25.80;34.80;;;24.66;22.62;100753.53;10424079;27;98853;-85
2022/07/17 18:21:52;;;;;;;1.17;0.60;;;25.70;35.10;;;24.50;22.79;100755.16;10434226;27;96686;-85
2022/07/17 18:26:58;;;;;;;1.77;1.45;;;25.50;35.20;;;24.35;23.22;100747.59;10413901;27;96756;-85
2022/07/17 18:32:02;;;;;;;1.63;1.10;;;25.40;35.50;;;24.22;23.59;100767.69;10433541;27;96909;-87
2022/07/17 18:37:05;;;;;;;0.98;0.60;;;25.30;35.80;;;24.04;23.63;100768.72;10422077;27;96587;-85
2022/07/17 18:42:08;;;;;;;2.83;0.60;;;25.10;36.10;;;23.91;24.09;100774.44;10396543;27;96578;-86
2022/07/17 18:47:11;;;;;;;5.63;1.60;;;25.00;36.40;;;23.63;24.23;100780.69;10408932;27;97620;-85
2022/07/17 18:52:19;;;;;;;4.10;2.83;;;24.70;36.60;;;23.30;24.93;100792.13;10415574;27;97134;-86
2022/07/17 18:57:22;;;;;;;2.47;1.85;;;24.50;37.00;;;22.97;25.29;100795.47;10426712;27;98691;-84
2022/07/17 19:02:25;;;;;;;1.85;0.90;;;24.20;37.30;;;22.68;25.69;100808.81;10428744;27;96597;-85
2022/07/17 19:07:29;;;;;;;1.90;0.70;;;23.90;37.70;;;22.41;26.29;100824.63;10439674;27;96831;-82
2022/07/17 19:12:31;;;;;;;2.38;0.60;;;23.60;38.20;;;22.17;26.64;100822.91;10429325;27;96797;-84
2022/07/17 19:17:34;;;;;;;2.63;0.63;;;23.40;38.60;;;22.00;27.04;100830.78;10434675;27;97570;-83
2022/07/17 19:22:39;;;;;;;3.15;0.68;;;23.10;38.80;;;21.88;26.90;100836.13;10419851;27;97072;-79
2022/07/17 19:27:43;;;;;;;3.28;0.93;;;23.00;38.90;;;21.82;27.40;100847.03;10432538;27;97027;-89
2022/07/17 19:32:47;;;;;;;2.40;0.50;;;22.90;39.20;;;21.66;27.76;100847.66;10379299;28;96959;-88
2022/07/17 19:37:50;;;;;;;4.75;0.88;;;22.80;39.50;;;21.54;28.21;100844.88;10406564;28;97036;-89
2022/07/17 19:42:53;;;;;;;2.05;0.90;;;22.70;39.80;;;21.49;28.62;100859.06;10391378;28;98112;-82
2022/07/17 19:47:56;;;;;;;4.75;0.90;;;22.70;40.20;;;21.44;28.82;100864.31;10380451;28;98212;-84
2022/07/17 19:52:59;;;;;;;1.92;0.65;;;22.60;40.70;;;21.40;29.58;100865.78;10429473;27;96655;-81
2022/07/17 19:58:02;;;;;;;2.75;0.82;;;22.50;41.20;;;21.40;29.61;100865.78;10400679;28;98697;-82
2022/07/17 20:03:05;;;;;;;1.45;0.63;;;22.50;41.60;;;21.42;30.38;100871.81;10410136;28;96761;-85
2022/07/17 20:08:08;;;;;;;1.63;0.77;;;22.40;41.90;;;21.46;30.03;100869.47;10413228;28;96536;-85
2022/07/17 20:13:11;;;;;;;1.30;0.60;;;22.50;41.80;;;21.46;29.91;100872.19;10394437;28;97000;-85
2022/07/17 20:18:14;;;;;;;3.15;1.00;;;22.60;41.80;;;21.49;30.41;100885.28;10411248;28;96621;-85
2022/07/17 20:23:18;;;;;;;1.92;0.75;;;22.60;41.90;;;21.40;30.96;100882.00;10408505;28;97522;-85
2022/07/17 20:28:21;;;;;;;3.00;0.88;;;22.60;42.30;;;21.26;31.15;100894.81;10379563;28;97663;-85
2022/07/17 20:33:25;;;;;;;3.85;0.70;;;22.50;42.60;;;21.24;31.15;100885.28;10414747;27;96612;-85
2022/07/17 20:38:27;;;;;;;2.05;0.40;;;22.40;42.70;;;21.20;31.79;100894.84;10430325;27;98223;-88
2022/07/17 20:43:33;;;;;;;1.08;0.40;;;22.40;42.80;;;21.20;31.78;100897.56;10449458;27;98435;-86
2022/07/17 20:48:36;;;;;;;1.38;0.68;;;22.40;43.00;;;21.07;32.09;100904.72;10422062;27;98033;-86
2022/07/17 20:53:39;;;;;;;2.30;0.90;;;22.30;43.30;;;20.91;32.36;100912.53;10410898;27;98385;-86
2022/07/17 20:58:42;;;;;;;2.55;0.68;;;22.10;43.70;;;20.70;32.93;100908.31;10435776;27;96748;-86